createdAt,value
2019-01-30T00:02:15.099Z,15.18
2019-01-30T00:04:44.080Z,15.45
2019-01-30T00:07:13.069Z,13.75
2019-01-30T00:09:42.630Z,15.03
2019-01-30T00:12:11.525Z,14.15
2019-01-30T00:14:40.428Z,21.57
2019-01-30T00:17:09.745Z,13.93
2019-01-30T00:19:38.793Z,17.67
2019-01-30T00:22:07.731Z,19.42
2019-01-30T00:24:36.660Z,16.02
2019-01-30T00:27:05.644Z,14.30
2019-01-30T00:29:34.508Z,12.70
2019-01-30T00:32:03.405Z,16.90
2019-01-30T00:34:32.405Z,16.12
2019-01-30T00:37:01.433Z,12.20
2019-01-30T00:39:30.328Z,13.30
2019-01-30T00:41:59.241Z,15.68
2019-01-30T00:44:28.068Z,18.17
2019-01-30T00:46:56.976Z,18.57
2019-01-30T00:49:25.885Z,15.40
2019-01-30T00:51:54.789Z,11.48
2019-01-30T00:54:31.984Z,17.57
2019-01-30T00:56:54.359Z,15.58
2019-01-30T00:59:23.360Z,13.90
2019-01-30T01:01:52.348Z,14.18
2019-01-30T01:04:21.439Z,14.75
2019-01-30T01:06:50.489Z,13.13
2019-01-30T01:09:19.474Z,14.33
2019-01-30T01:11:48.446Z,15.40
2019-01-30T01:14:17.332Z,13.00
2019-01-30T01:16:46.253Z,13.10
2019-01-30T01:19:15.249Z,17.05
2019-01-30T01:21:44.234Z,14.78
2019-01-30T01:24:13.213Z,18.80
2019-01-30T01:26:42.262Z,13.60
2019-01-30T01:29:11.241Z,17.67
2019-01-30T01:31:40.478Z,13.55
2019-01-30T01:34:09.382Z,13.30
2019-01-30T01:36:38.372Z,15.08
2019-01-30T01:39:08.656Z,13.55
2019-01-30T01:41:37.637Z,16.25
2019-01-30T01:44:06.649Z,12.40
2019-01-30T01:46:35.507Z,13.22
2019-01-30T01:49:05.187Z,17.32
2019-01-30T01:51:34.076Z,12.95
2019-01-30T01:54:03.003Z,14.68
2019-01-30T01:56:31.891Z,14.95
2019-01-30T01:59:01.425Z,12.63
2019-01-30T02:01:30.402Z,14.25
2019-01-30T02:03:59.327Z,12.73
2019-01-30T02:06:28.453Z,12.30
2019-01-30T02:08:57.297Z,14.18
2019-01-30T02:11:26.272Z,13.35
2019-01-30T02:13:55.219Z,12.10
2019-01-30T02:16:25.396Z,14.03
2019-01-30T02:18:54.264Z,14.25
2019-01-30T02:21:24.550Z,13.35
2019-01-30T02:23:53.478Z,12.78
2019-01-30T02:26:22.305Z,16.05
2019-01-30T02:28:51.273Z,11.93
2019-01-30T02:31:20.272Z,12.00
2019-01-30T02:33:49.113Z,13.05
2019-01-30T02:36:18.014Z,11.57
2019-01-30T02:38:46.937Z,11.75
2019-01-30T02:41:15.849Z,15.08
2019-01-30T02:43:44.684Z,18.52
2019-01-30T02:46:13.606Z,14.05
2019-01-30T02:48:42.453Z,13.35
2019-01-30T02:51:11.461Z,13.40
2019-01-30T02:53:40.369Z,13.55
2019-01-30T02:56:09.355Z,13.00
2019-01-30T02:58:38.206Z,13.32
2019-01-30T03:01:07.561Z,16.30
2019-01-30T03:03:36.420Z,14.28
2019-01-30T03:06:05.508Z,12.78
2019-01-30T03:08:34.341Z,12.47
2019-01-30T03:11:03.328Z,12.40
2019-01-30T03:13:32.244Z,15.23
2019-01-30T03:16:01.141Z,13.32
2019-01-30T03:18:30.066Z,18.07
2019-01-30T03:20:58.900Z,12.33
2019-01-30T03:23:27.742Z,13.68
2019-01-30T03:25:56.833Z,14.05
2019-01-30T03:28:25.819Z,12.82
2019-01-30T03:30:54.697Z,12.45
2019-01-30T03:33:23.552Z,17.37
2019-01-30T03:35:52.464Z,12.30
2019-01-30T03:38:21.377Z,13.75
2019-01-30T03:40:50.346Z,13.70
2019-01-30T03:43:19.188Z,16.07
2019-01-30T03:45:48.188Z,14.95
2019-01-30T03:48:17.172Z,14.35
2019-01-30T03:50:46.157Z,15.08
2019-01-30T03:53:18.409Z,14.83
2019-01-30T03:55:47.330Z,14.33
2019-01-30T03:58:16.258Z,15.38
2019-01-30T04:00:45.262Z,16.40
2019-01-30T04:03:14.234Z,16.12
2019-01-30T04:05:43.078Z,15.35
2019-01-30T04:08:11.992Z,14.60
2019-01-30T04:10:40.974Z,19.27
2019-01-30T04:13:09.956Z,16.42
2019-01-30T04:15:38.932Z,13.68
2019-01-30T04:18:07.822Z,17.05
2019-01-30T04:20:36.796Z,13.78
2019-01-30T04:23:05.707Z,15.00
2019-01-30T04:25:34.535Z,13.28
2019-01-30T04:28:05.029Z,14.13
2019-01-30T04:30:33.825Z,16.27
2019-01-30T04:33:02.753Z,15.83
2019-01-30T04:35:31.964Z,13.03
2019-01-30T04:38:01.651Z,13.55
2019-01-30T04:40:30.529Z,16.07
2019-01-30T04:42:59.337Z,14.58
2019-01-30T04:45:28.434Z,14.95
2019-01-30T04:47:57.406Z,18.02
2019-01-30T04:50:26.633Z,20.43
2019-01-30T04:52:55.541Z,14.55
2019-01-30T04:55:24.554Z,13.95
2019-01-30T04:57:53.532Z,13.20
2019-01-30T05:00:23.872Z,17.32
2019-01-30T05:02:52.738Z,15.08
2019-01-30T05:05:21.952Z,13.50
2019-01-30T05:07:50.921Z,13.53
2019-01-30T05:10:19.969Z,16.12
2019-01-30T05:12:48.789Z,14.33
2019-01-30T05:15:19.310Z,17.77
2019-01-30T05:17:48.518Z,14.58
2019-01-30T05:20:18.437Z,16.17
2019-01-30T05:22:53.213Z,13.95
2019-01-30T05:25:22.533Z,17.80
2019-01-30T05:27:51.501Z,13.68
2019-01-30T05:30:25.564Z,16.17
2019-01-30T05:32:54.745Z,15.28
2019-01-30T05:35:23.813Z,16.62
2019-01-30T05:37:52.776Z,18.50
2019-01-30T05:40:21.786Z,13.38
2019-01-30T05:42:50.943Z,18.35
2019-01-30T05:45:19.918Z,15.83
2019-01-30T05:47:48.975Z,17.52
2019-01-30T05:50:18.121Z,19.87
2019-01-30T05:52:52.218Z,17.42
2019-01-30T05:55:38.729Z,19.37
2019-01-30T05:58:07.636Z,14.07
2019-01-30T06:00:41.463Z,22.55
2019-01-30T06:03:12.462Z,20.68
2019-01-30T06:05:42.053Z,22.77
2019-01-30T06:08:13.032Z,18.95
2019-01-30T06:10:49.823Z,20.10
2019-01-30T06:13:18.952Z,24.15
2019-01-30T06:15:47.894Z,24.95
2019-01-30T06:18:16.849Z,22.48
2019-01-30T06:20:45.884Z,19.70
2019-01-30T06:23:17.319Z,22.50
2019-01-30T06:25:46.397Z,23.15
2019-01-30T06:28:15.398Z,21.35
2019-01-30T06:30:46.348Z,22.90
2019-01-30T06:33:22.506Z,20.92
2019-01-30T06:35:57.413Z,19.23
2019-01-30T06:38:26.476Z,23.62
2019-01-30T06:40:57.521Z,18.75
2019-01-30T06:43:29.629Z,18.40
2019-01-30T06:46:00.553Z,23.98
2019-01-30T06:48:29.625Z,19.23
2019-01-30T06:50:58.646Z,18.30
2019-01-30T06:53:33.375Z,19.62
2019-01-30T06:56:02.595Z,14.40
2019-01-30T06:58:31.660Z,20.48
2019-01-30T07:01:00.727Z,13.08
2019-01-30T07:03:31.794Z,16.75
2019-01-30T07:06:02.785Z,15.43
2019-01-30T07:08:31.801Z,15.13
2019-01-30T07:11:17.161Z,15.23
2019-01-30T07:13:54.939Z,14.73
2019-01-30T07:16:23.905Z,15.65
2019-01-30T07:18:55.897Z,14.90
2019-01-30T07:21:39.062Z,14.23
2019-01-30T07:24:08.146Z,13.22
2019-01-30T07:26:39.386Z,16.93
2019-01-30T07:29:08.869Z,17.50
2019-01-30T07:31:37.900Z,16.55
2019-01-30T07:34:06.905Z,20.37
2019-01-30T07:36:35.973Z,18.25
2019-01-30T07:39:09.141Z,22.75
2019-01-30T07:41:40.141Z,19.70
2019-01-30T07:44:09.189Z,16.87
2019-01-30T07:46:38.150Z,21.02
2019-01-30T07:49:07.210Z,19.12
2019-01-30T07:51:36.029Z,20.32
2019-01-30T07:54:05.109Z,15.75
2019-01-30T07:56:33.935Z,16.17
2019-01-30T07:59:02.817Z,21.93
2019-01-30T08:01:32.093Z,22.10
2019-01-30T08:04:00.987Z,21.35
2019-01-30T08:06:29.971Z,23.62
2019-01-30T08:08:58.876Z,26.05
2019-01-30T08:11:27.798Z,20.70
2019-01-30T08:13:56.777Z,23.70
2019-01-30T08:16:25.769Z,22.55
2019-01-30T08:18:54.689Z,22.13
2019-01-30T08:21:23.524Z,19.00
2019-01-30T08:23:52.490Z,21.12
2019-01-30T08:26:21.663Z,18.95
2019-01-30T08:28:50.848Z,17.82
2019-01-30T08:31:20.049Z,17.92
2019-01-30T08:33:49.054Z,19.82
2019-01-30T08:36:18.024Z,18.37
2019-01-30T08:38:49.113Z,18.60
2019-01-30T08:41:19.597Z,18.48
2019-01-30T08:43:54.543Z,18.65
2019-01-30T08:46:27.727Z,12.73
2019-01-30T08:48:58.910Z,11.80
2019-01-30T08:51:27.901Z,11.88
2019-01-30T08:53:56.905Z,14.98
2019-01-30T08:56:27.938Z,13.45
2019-01-30T08:58:56.849Z,12.60
2019-01-30T09:01:36.371Z,10.93
2019-01-30T09:04:05.564Z,10.32
2019-01-30T09:06:34.673Z,14.30
2019-01-30T09:09:08.397Z,10.50
2019-01-30T09:11:38.402Z,11.80
2019-01-30T09:14:08.406Z,11.08
2019-01-30T09:16:37.409Z,10.20
2019-01-30T09:19:06.434Z,12.23
2019-01-30T09:21:42.332Z,13.48
2019-01-30T09:24:11.349Z,10.25
2019-01-30T09:26:40.352Z,9.30
2019-01-30T09:29:09.330Z,9.90
2019-01-30T09:31:38.641Z,9.08
2019-01-30T09:34:07.645Z,10.30
2019-01-30T09:36:37.834Z,12.80
2019-01-30T09:39:09.237Z,10.72
2019-01-30T09:41:38.129Z,9.08
2019-01-30T09:44:07.114Z,11.40
2019-01-30T09:46:36.994Z,9.58
2019-01-30T09:49:09.174Z,10.93
2019-01-30T09:51:38.354Z,8.43
2019-01-30T09:54:08.477Z,8.35
2019-01-30T09:56:40.521Z,8.60
2019-01-30T09:59:09.426Z,8.63
2019-01-30T10:01:41.537Z,8.65
2019-01-30T10:04:10.361Z,8.50
2019-01-30T10:06:39.197Z,9.95
2019-01-30T10:09:09.425Z,8.15
2019-01-30T10:11:38.411Z,8.73
2019-01-30T10:14:07.389Z,7.97
2019-01-30T10:16:36.458Z,8.45
2019-01-30T10:19:05.481Z,7.75
2019-01-30T10:21:36.718Z,11.48
2019-01-30T10:24:05.821Z,8.78
2019-01-30T10:26:34.814Z,8.73
2019-01-30T10:29:03.910Z,7.83
2019-01-30T10:31:32.805Z,7.20
2019-01-30T10:34:01.745Z,11.12
2019-01-30T10:36:30.681Z,7.80
2019-01-30T10:38:59.590Z,8.45
2019-01-30T10:41:28.557Z,7.65
2019-01-30T10:43:57.537Z,7.35
2019-01-30T10:46:26.449Z,7.20
2019-01-30T10:48:56.364Z,8.45
2019-01-30T10:51:32.243Z,7.67
2019-01-30T10:54:04.367Z,8.33
2019-01-30T10:56:33.462Z,7.20
2019-01-30T10:59:04.541Z,7.35
2019-01-30T11:01:33.739Z,9.68
2019-01-30T11:04:02.662Z,7.97
2019-01-30T11:06:32.527Z,7.97
2019-01-30T11:09:01.472Z,7.28
2019-01-30T11:11:30.554Z,8.30
2019-01-30T11:14:01.439Z,12.40
2019-01-30T11:16:30.433Z,7.53
2019-01-30T11:19:01.320Z,8.05
2019-01-30T11:21:31.262Z,7.00
2019-01-30T11:24:00.342Z,10.08
2019-01-30T11:26:29.431Z,7.47
2019-01-30T11:28:58.454Z,6.80
2019-01-30T11:31:31.637Z,8.08
2019-01-30T11:34:07.691Z,6.70
2019-01-30T11:36:34.538Z,6.40
2019-01-30T11:39:05.374Z,7.03
2019-01-30T11:41:34.369Z,6.87
2019-01-30T11:44:04.812Z,6.83
2019-01-30T11:46:33.724Z,7.75
2019-01-30T11:49:02.607Z,6.08
2019-01-30T11:51:31.599Z,6.30
2019-01-30T11:54:06.402Z,6.12
2019-01-30T11:56:35.310Z,6.85
2019-01-30T11:59:04.283Z,6.35
2019-01-30T12:01:33.342Z,6.30
2019-01-30T12:04:02.256Z,6.45
2019-01-30T12:06:31.202Z,6.90
2019-01-30T12:09:00.122Z,6.20
2019-01-30T12:11:29.086Z,7.00
2019-01-30T12:13:57.970Z,7.65
2019-01-30T12:16:26.820Z,7.15
2019-01-30T12:18:55.715Z,8.03
2019-01-30T12:21:24.640Z,6.55
2019-01-30T12:23:53.474Z,8.55
2019-01-30T12:26:22.467Z,13.78
2019-01-30T12:28:51.385Z,6.30
2019-01-30T12:31:20.418Z,6.42
2019-01-30T12:33:49.257Z,6.25
2019-01-30T12:36:18.182Z,6.85
2019-01-30T12:38:47.102Z,9.23
2019-01-30T12:41:16.154Z,7.30
2019-01-30T12:43:45.475Z,6.80
2019-01-30T12:46:14.637Z,11.28
2019-01-30T12:48:43.646Z,6.37
2019-01-30T12:51:12.752Z,6.55
2019-01-30T12:53:41.682Z,7.60
2019-01-30T12:56:10.711Z,7.42
2019-01-30T12:58:39.521Z,6.80
2019-01-30T13:01:09.011Z,12.85
2019-01-30T13:03:37.830Z,6.15
2019-01-30T13:06:06.879Z,15.00
2019-01-30T13:08:55.256Z,6.30
2019-01-30T13:11:24.221Z,6.65
2019-01-30T13:13:54.160Z,6.70
2019-01-30T13:16:32.217Z,6.40
2019-01-30T13:19:02.226Z,7.42
2019-01-30T13:21:31.250Z,6.87
2019-01-30T13:24:01.470Z,8.85
2019-01-30T13:26:31.569Z,8.20
2019-01-30T13:29:00.586Z,6.95
2019-01-30T13:31:29.598Z,6.30
2019-01-30T13:33:58.584Z,6.50
2019-01-30T13:36:27.547Z,6.35
2019-01-30T13:38:56.503Z,6.60
2019-01-30T13:41:28.620Z,6.40
2019-01-30T13:43:57.601Z,7.75
2019-01-30T13:46:26.601Z,6.40
2019-01-30T13:48:55.506Z,6.50
2019-01-30T13:51:24.493Z,7.05
2019-01-30T13:53:53.528Z,6.80
2019-01-30T13:56:28.342Z,6.50
2019-01-30T13:58:58.439Z,6.50
2019-01-30T14:01:28.069Z,7.92
2019-01-30T14:04:11.348Z,6.50
2019-01-30T14:06:40.306Z,8.30
2019-01-30T14:09:15.141Z,6.15
2019-01-30T14:11:59.655Z,6.37
2019-01-30T14:14:47.516Z,6.83
2019-01-30T14:17:32.178Z,6.37
2019-01-30T14:20:07.410Z,7.45
2019-01-30T14:22:38.538Z,6.03
2019-01-30T14:25:08.168Z,6.83
2019-01-30T14:27:38.226Z,6.60
2019-01-30T14:30:11.372Z,7.28
2019-01-30T14:32:40.405Z,6.70
2019-01-30T14:35:11.677Z,7.67
2019-01-30T14:37:41.753Z,7.05
2019-01-30T14:40:12.086Z,8.25
2019-01-30T14:42:41.081Z,7.55
2019-01-30T14:45:12.278Z,7.05
2019-01-30T14:47:41.318Z,7.90
2019-01-30T14:50:21.213Z,6.62
2019-01-30T14:52:50.182Z,10.40
2019-01-30T14:55:19.519Z,9.15
2019-01-30T14:57:51.536Z,7.97
2019-01-30T15:00:28.770Z,8.68
2019-01-30T15:02:58.947Z,7.45
2019-01-30T15:05:28.374Z,7.40
2019-01-30T15:07:57.556Z,7.90
2019-01-30T15:10:26.938Z,7.97
2019-01-30T15:13:08.114Z,8.15
2019-01-30T15:15:40.610Z,7.53
2019-01-30T15:18:09.704Z,6.92
2019-01-30T15:20:39.153Z,8.05
2019-01-30T15:23:09.172Z,7.20
2019-01-30T15:25:38.279Z,8.23
2019-01-30T15:28:08.643Z,6.83
2019-01-30T15:30:43.184Z,8.98
2019-01-30T15:33:18.250Z,7.10
2019-01-30T15:35:47.271Z,6.90
2019-01-30T15:38:20.896Z,11.85
2019-01-30T15:40:50.014Z,6.58
2019-01-30T15:43:24.922Z,7.53
2019-01-30T15:45:53.753Z,8.35
2019-01-30T15:48:25.201Z,8.50
2019-01-30T15:50:54.059Z,8.25
2019-01-30T15:53:32.366Z,10.60
2019-01-30T15:56:02.193Z,10.08
2019-01-30T15:58:36.234Z,10.30
2019-01-30T16:01:09.949Z,10.43
2019-01-30T16:03:50.933Z,6.97
2019-01-30T16:06:20.882Z,8.33
2019-01-30T16:09:08.431Z,7.85
2019-01-30T16:11:56.472Z,8.30
2019-01-30T16:14:25.338Z,10.25
2019-01-30T16:16:54.230Z,7.72
2019-01-30T16:19:23.163Z,7.75
2019-01-30T16:21:52.196Z,9.95
2019-01-30T16:24:21.291Z,7.80
2019-01-30T16:26:50.396Z,7.42
2019-01-30T16:29:26.332Z,7.90
2019-01-30T16:31:57.275Z,7.75
2019-01-30T16:34:26.259Z,8.33
2019-01-30T16:37:03.174Z,7.45
2019-01-30T16:39:37.263Z,7.35
2019-01-30T16:42:06.371Z,8.85
2019-01-30T16:44:35.448Z,7.97
2019-01-30T16:47:04.546Z,8.90
2019-01-30T16:49:33.474Z,7.60
2019-01-30T16:52:09.529Z,7.90
2019-01-30T16:54:38.554Z,10.78
2019-01-30T16:57:07.578Z,7.10
2019-01-30T16:59:38.414Z,7.20
2019-01-30T17:02:07.403Z,9.73
2019-01-30T17:04:38.530Z,7.10
2019-01-30T17:07:11.832Z,8.98
2019-01-30T17:09:43.906Z,7.95
2019-01-30T17:12:15.149Z,10.63
2019-01-30T17:14:43.986Z,9.98
2019-01-30T17:17:12.890Z,8.65
2019-01-30T17:19:41.915Z,11.97
2019-01-30T17:22:10.846Z,10.63
2019-01-30T17:24:39.749Z,9.80
2019-01-30T17:27:08.932Z,8.50
2019-01-30T17:29:37.966Z,10.78
2019-01-30T17:32:06.818Z,15.05
2019-01-30T17:34:35.751Z,9.88
2019-01-30T17:37:04.766Z,11.40
2019-01-30T17:39:35.024Z,8.98
2019-01-30T17:42:04.014Z,11.85
2019-01-30T17:44:33.017Z,8.03
2019-01-30T17:47:02.039Z,11.15
2019-01-30T17:49:44.105Z,8.78
2019-01-30T17:52:16.058Z,10.40
2019-01-30T17:54:47.007Z,9.73
2019-01-30T17:57:17.155Z,8.55
2019-01-30T17:59:46.098Z,11.00
2019-01-30T18:02:15.322Z,10.10
2019-01-30T18:04:44.294Z,13.32
2019-01-30T18:07:15.238Z,8.40
2019-01-30T18:09:45.344Z,8.35
2019-01-30T18:12:14.355Z,9.13
2019-01-30T18:14:43.459Z,9.35
2019-01-30T18:17:13.689Z,9.23
2019-01-30T18:19:45.802Z,10.18
2019-01-30T18:22:14.906Z,10.80
2019-01-30T18:24:43.841Z,8.65
2019-01-30T18:27:14.874Z,10.68
2019-01-30T18:29:43.864Z,8.88
2019-01-30T18:32:13.570Z,8.60
2019-01-30T18:34:42.604Z,8.50
2019-01-30T18:37:11.631Z,12.40
2019-01-30T18:39:56.011Z,9.28
2019-01-30T18:42:50.301Z,11.48
2019-01-30T18:45:28.597Z,13.08
2019-01-30T18:48:05.802Z,12.23
2019-01-30T18:50:35.916Z,9.65
2019-01-30T18:53:05.470Z,12.35
2019-01-30T18:55:36.563Z,8.58
2019-01-30T18:58:13.594Z,10.72
2019-01-30T19:00:45.050Z,8.78
2019-01-30T19:03:23.064Z,9.50
2019-01-30T19:05:52.402Z,11.45
2019-01-30T19:08:28.124Z,10.58
2019-01-30T19:11:05.291Z,10.68
2019-01-30T19:13:34.430Z,8.40
2019-01-30T19:16:14.573Z,8.80
2019-01-30T19:18:43.657Z,8.58
2019-01-30T19:21:18.722Z,15.35
2019-01-30T19:23:47.707Z,10.28
2019-01-30T19:26:16.798Z,8.60
2019-01-30T19:28:53.212Z,16.12
2019-01-30T19:31:23.110Z,10.18
2019-01-30T19:33:53.176Z,12.90
2019-01-30T19:36:22.182Z,9.63
2019-01-30T19:38:54.270Z,7.85
2019-01-30T19:41:27.438Z,11.40
2019-01-30T19:43:57.370Z,15.32
2019-01-30T19:46:27.349Z,8.40
2019-01-30T19:48:57.170Z,9.10
2019-01-30T19:51:26.234Z,10.40
2019-01-30T19:53:57.199Z,10.18
2019-01-30T19:56:28.959Z,9.88
2019-01-30T19:58:57.971Z,9.53
2019-01-30T20:01:36.013Z,12.40
2019-01-30T20:03:57.689Z,8.20
2019-01-30T20:06:26.682Z,8.35
2019-01-30T20:08:55.662Z,9.00
2019-01-30T20:11:24.735Z,8.40
2019-01-30T20:13:53.782Z,9.95
2019-01-30T20:16:38.008Z,7.95
2019-01-30T20:19:10.094Z,10.50
2019-01-30T20:21:44.439Z,9.58
2019-01-30T20:24:13.420Z,8.83
2019-01-30T20:26:52.139Z,10.53
2019-01-30T20:29:21.087Z,8.98
2019-01-30T20:31:51.205Z,10.28
2019-01-30T20:34:20.244Z,8.70
2019-01-30T20:37:26.243Z,11.38
2019-01-30T20:40:02.853Z,8.03
2019-01-30T20:42:32.938Z,9.98
2019-01-30T20:45:01.922Z,11.68
2019-01-30T20:47:30.838Z,13.08
2019-01-30T20:49:59.753Z,8.00
2019-01-30T20:52:28.662Z,12.70
2019-01-30T20:54:59.895Z,8.35
2019-01-30T20:57:28.063Z,12.90
2019-01-30T20:59:57.002Z,9.18
2019-01-30T21:02:25.902Z,9.90
2019-01-30T21:04:54.750Z,11.22
2019-01-30T21:07:23.598Z,10.90
2019-01-30T21:09:52.637Z,9.98
2019-01-30T21:12:24.565Z,11.15
2019-01-30T21:14:53.666Z,9.83
2019-01-30T21:17:31.753Z,9.68
2019-01-30T21:20:01.545Z,8.90
2019-01-30T21:22:30.477Z,12.82
2019-01-30T21:24:59.403Z,12.80
2019-01-30T21:27:28.281Z,10.53
2019-01-30T21:29:59.486Z,11.10
2019-01-30T21:32:30.706Z,10.82
2019-01-30T21:34:59.723Z,10.03
2019-01-30T21:37:31.821Z,10.30
2019-01-30T21:40:07.793Z,14.30
2019-01-30T21:42:38.806Z,12.78
2019-01-30T21:45:18.723Z,10.95
2019-01-30T21:47:47.814Z,9.35
2019-01-30T21:50:17.222Z,13.15
2019-01-30T21:52:46.518Z,11.10
2019-01-30T21:55:23.035Z,10.48
2019-01-30T21:58:03.371Z,16.25
2019-01-30T22:00:38.466Z,9.98
2019-01-30T22:03:13.411Z,15.18
2019-01-30T22:05:42.482Z,9.35
2019-01-30T22:08:18.513Z,10.45
2019-01-30T22:10:56.622Z,11.80
2019-01-30T22:13:38.710Z,12.55
2019-01-30T22:16:07.713Z,9.98
2019-01-30T22:18:42.745Z,12.65
2019-01-30T22:21:17.854Z,12.00
2019-01-30T22:24:05.511Z,8.15
2019-01-30T22:26:32.975Z,15.23
2019-01-30T22:29:02.715Z,12.33
2019-01-30T22:31:39.257Z,10.25
2019-01-30T22:34:09.236Z,12.10
2019-01-30T22:36:50.214Z,13.32
2019-01-30T22:39:19.246Z,12.35
2019-01-30T22:41:48.281Z,10.00
2019-01-30T22:44:17.265Z,13.15
2019-01-30T22:46:46.354Z,9.08
2019-01-30T22:49:15.198Z,8.43
2019-01-30T22:51:51.946Z,9.73
2019-01-30T22:54:21.962Z,11.78
2019-01-30T22:56:50.968Z,11.45
2019-01-30T22:59:21.825Z,8.38
2019-01-30T23:01:57.649Z,10.08
2019-01-30T23:04:47.802Z,9.28
2019-01-30T23:08:02.793Z,10.43
2019-01-30T23:11:07.662Z,9.20
2019-01-30T23:14:15.939Z,9.53
2019-01-30T23:17:27.171Z,9.10
2019-01-30T23:20:22.751Z,9.30
2019-01-30T23:23:34.142Z,11.35
2019-01-30T23:26:33.438Z,10.05
2019-01-30T23:29:40.890Z,12.93
2019-01-30T23:32:19.369Z,10.60
2019-01-30T23:35:26.781Z,10.43
2019-01-30T23:38:36.855Z,8.80
2019-01-30T23:41:41.862Z,9.98
2019-01-30T23:44:38.749Z,8.83
2019-01-30T23:47:40.190Z,9.83
2019-01-30T23:51:01.676Z,9.28
2019-01-30T23:53:53.345Z,9.45
2019-01-30T23:56:54.082Z,11.22
